createdAt,value
2018-03-15T00:00:44.550Z,98.90
2018-03-15T00:03:24.564Z,99.10
2018-03-15T00:05:59.425Z,99.40
2018-03-15T00:08:33.634Z,99.40
2018-03-15T00:11:08.234Z,99.60
2018-03-15T00:13:43.341Z,99.60
2018-03-15T00:16:17.072Z,99.60
2018-03-15T00:18:51.484Z,99.80
2018-03-15T00:21:27.133Z,99.90
2018-03-15T00:24:02.897Z,99.90
2018-03-15T00:26:37.820Z,99.90
2018-03-15T00:29:12.655Z,99.90
2018-03-15T00:31:47.392Z,99.90
2018-03-15T00:34:22.919Z,99.90
2018-03-15T00:36:56.836Z,99.90
2018-03-15T00:39:31.452Z,99.90
2018-03-15T00:42:05.974Z,99.90
2018-03-15T00:44:39.798Z,99.90
2018-03-15T00:47:15.520Z,99.90
2018-03-15T00:49:49.244Z,99.90
2018-03-15T00:52:24.459Z,99.90
2018-03-15T00:54:58.479Z,99.90
2018-03-15T00:57:32.501Z,99.90
2018-03-15T01:00:07.000Z,99.90
2018-03-15T01:02:41.022Z,99.90
2018-03-15T01:05:16.152Z,99.90
2018-03-15T01:07:49.847Z,99.90
2018-03-15T01:10:24.113Z,99.90
2018-03-15T01:12:57.776Z,99.90
2018-03-15T01:15:32.501Z,99.90
2018-03-15T01:18:06.512Z,99.90
2018-03-15T01:20:40.946Z,99.90
2018-03-15T01:23:15.353Z,99.90
2018-03-15T01:25:49.355Z,99.90
2018-03-15T01:28:25.327Z,99.90
2018-03-15T01:30:59.321Z,99.90
2018-03-15T01:33:34.559Z,99.90
2018-03-15T01:36:09.388Z,99.90
2018-03-15T01:38:46.064Z,99.90
2018-03-15T01:41:20.684Z,99.90
2018-03-15T01:43:54.387Z,99.90
2018-03-15T01:46:28.395Z,99.90
2018-03-15T01:49:02.724Z,99.90
2018-03-15T01:51:37.646Z,99.90
2018-03-15T01:54:12.511Z,99.90
2018-03-15T01:56:46.190Z,99.90
2018-03-15T01:59:19.978Z,99.90
2018-03-15T02:01:55.285Z,99.90
2018-03-15T02:04:28.916Z,99.90
2018-03-15T02:07:05.585Z,99.90
2018-03-15T02:09:40.625Z,99.90
2018-03-15T02:12:16.269Z,99.90
2018-03-15T02:14:52.225Z,99.90
2018-03-15T02:17:27.661Z,99.90
2018-03-15T02:20:03.317Z,99.90
2018-03-15T02:22:38.043Z,99.90
2018-03-15T02:25:13.183Z,99.90
2018-03-15T02:27:47.905Z,99.90
2018-03-15T02:30:22.945Z,99.90
2018-03-15T02:32:57.057Z,99.90
2018-03-15T02:35:32.505Z,99.90
2018-03-15T02:38:06.407Z,99.90
2018-03-15T02:40:40.204Z,99.90
2018-03-15T02:43:15.236Z,99.90
2018-03-15T02:45:49.884Z,99.90
2018-03-15T02:48:25.911Z,99.90
2018-03-15T02:50:59.737Z,99.90
2018-03-15T03:06:22.233Z,99.90
2018-03-15T03:08:56.050Z,99.90
2018-03-15T03:11:29.845Z,99.90
2018-03-15T03:14:03.651Z,99.90
2018-03-15T03:16:38.296Z,99.90
2018-03-15T03:19:13.427Z,99.90
2018-03-15T03:21:48.060Z,99.90
2018-03-15T03:24:22.969Z,99.90
2018-03-15T03:26:57.696Z,99.90
2018-03-15T03:29:32.326Z,99.90
2018-03-15T03:32:06.122Z,99.90
2018-03-15T03:34:41.092Z,99.90
2018-03-15T03:37:15.780Z,99.90
2018-03-15T03:39:50.228Z,99.90
2018-03-15T03:42:34.449Z,99.90
2018-03-15T03:45:08.956Z,99.90
2018-03-15T03:47:43.081Z,99.90
2018-03-15T03:50:16.811Z,99.90
2018-03-15T03:52:50.690Z,99.90
2018-03-15T03:55:24.890Z,99.90
2018-03-15T03:57:59.428Z,99.90
2018-03-15T04:00:34.459Z,99.90
2018-03-15T04:03:08.370Z,99.90
2018-03-15T04:05:43.837Z,99.90
2018-03-15T04:08:17.616Z,99.90
2018-03-15T04:10:52.456Z,99.90
2018-03-15T04:13:27.184Z,99.90
2018-03-15T04:16:01.078Z,99.90
2018-03-15T04:18:35.499Z,99.90
2018-03-15T04:21:09.852Z,99.90
2018-03-15T04:23:43.629Z,99.90
2018-03-15T04:26:18.034Z,99.90
2018-03-15T04:28:52.675Z,99.90
2018-03-15T04:31:27.820Z,99.90
2018-03-15T04:34:03.441Z,99.90
2018-03-15T04:36:38.588Z,99.90
2018-03-15T04:39:12.705Z,99.90
2018-03-15T04:41:46.606Z,99.90
2018-03-15T04:44:20.608Z,99.90
2018-03-15T04:46:54.956Z,99.90
2018-03-15T04:49:28.840Z,99.90
2018-03-15T04:52:02.839Z,99.90
2018-03-15T04:54:36.875Z,99.90
2018-03-15T04:57:12.099Z,99.90
2018-03-15T04:59:47.844Z,99.90
2018-03-15T05:02:21.740Z,99.90
2018-03-15T05:04:55.857Z,99.90
2018-03-15T05:07:30.263Z,99.90
2018-03-15T05:10:04.895Z,99.90
2018-03-15T05:12:38.759Z,99.90
2018-03-15T05:15:12.625Z,99.90
2018-03-15T05:17:46.783Z,99.90
2018-03-15T05:20:20.641Z,99.90
2018-03-15T05:22:54.331Z,99.90
2018-03-15T05:25:28.856Z,99.90
2018-03-15T05:28:03.256Z,99.90
2018-03-15T05:30:37.993Z,99.90
2018-03-15T05:33:11.564Z,99.90
2018-03-15T05:35:45.419Z,99.90
2018-03-15T05:38:20.344Z,99.90
2018-03-15T05:40:55.017Z,99.90
2018-03-15T05:43:29.949Z,99.90
2018-03-15T05:46:04.508Z,99.90
2018-03-15T05:48:39.468Z,99.90
2018-03-15T05:51:13.363Z,99.90
2018-03-15T05:53:48.076Z,99.90
2018-03-15T05:56:22.801Z,99.90
2018-03-15T05:58:56.847Z,99.90
2018-03-15T06:01:31.331Z,99.90
2018-03-15T06:04:05.880Z,99.90
2018-03-15T06:06:40.499Z,99.90
2018-03-15T06:09:14.658Z,99.90
2018-03-15T06:11:48.899Z,99.90
2018-03-15T06:14:23.325Z,99.90
2018-03-15T06:16:57.231Z,99.90
2018-03-15T06:19:31.656Z,99.90
2018-03-15T06:22:06.485Z,99.90
2018-03-15T06:24:40.394Z,99.90
2018-03-15T06:27:15.193Z,99.90
2018-03-15T06:29:49.019Z,99.90
2018-03-15T06:32:22.728Z,99.90
2018-03-15T06:34:56.654Z,99.90
2018-03-15T06:37:30.530Z,99.90
2018-03-15T06:40:04.256Z,99.90
2018-03-15T06:42:39.249Z,99.90
2018-03-15T06:45:12.790Z,99.90
2018-03-15T06:47:46.483Z,99.90
2018-03-15T06:50:21.300Z,99.90
2018-03-15T06:52:56.064Z,99.90
2018-03-15T06:55:30.793Z,99.90
2018-03-15T06:58:05.340Z,99.70
2018-03-15T07:00:39.474Z,99.70
2018-03-15T07:03:14.507Z,99.30
2018-03-15T07:05:49.348Z,99.30
2018-03-15T07:08:23.137Z,99.30
2018-03-15T07:10:57.164Z,99.00
2018-03-15T07:13:31.059Z,98.30
2018-03-15T07:16:04.752Z,98.50
2018-03-15T07:18:39.672Z,98.50
2018-03-15T07:21:13.602Z,98.50
2018-03-15T07:23:48.543Z,98.70
2018-03-15T07:26:22.968Z,98.60
2018-03-15T07:28:58.087Z,98.90
2018-03-15T07:31:32.100Z,98.80
2018-03-15T07:34:05.700Z,98.70
2018-03-15T07:36:40.598Z,98.10
2018-03-15T07:39:15.800Z,97.70
2018-03-15T07:41:51.019Z,97.30
2018-03-15T07:44:26.015Z,97.60
2018-03-15T07:47:00.884Z,97.40
2018-03-15T07:49:36.027Z,97.10
2018-03-15T07:52:10.115Z,97.10
2018-03-15T07:54:44.564Z,97.40
2018-03-15T07:57:19.291Z,97.20
2018-03-15T07:59:52.856Z,97.20
2018-03-15T08:02:27.950Z,97.10
2018-03-15T08:05:01.831Z,97.10
2018-03-15T08:07:36.642Z,96.70
2018-03-15T08:10:10.564Z,96.70
2018-03-15T08:12:44.300Z,96.70
2018-03-15T08:15:18.400Z,96.10
2018-03-15T08:17:53.097Z,95.90
2018-03-15T08:20:26.884Z,95.90
2018-03-15T08:23:01.885Z,95.30
2018-03-15T08:25:36.442Z,94.70
2018-03-15T08:28:11.234Z,95.40
2018-03-15T08:30:45.075Z,95.40
2018-03-15T08:33:19.868Z,94.90
2018-03-15T08:35:53.920Z,94.90
2018-03-15T08:38:28.825Z,95.20
2018-03-15T08:41:04.250Z,94.60
2018-03-15T08:43:38.516Z,94.60
2018-03-15T08:46:13.275Z,93.70
2018-03-15T08:48:47.488Z,93.70
2018-03-15T08:51:21.872Z,92.70
2018-03-15T08:53:56.334Z,92.70
2018-03-15T08:56:30.095Z,93.30
2018-03-15T08:59:04.040Z,93.40
2018-03-15T09:01:38.224Z,93.50
2018-03-15T09:04:12.839Z,93.70
2018-03-15T09:06:46.820Z,93.70
2018-03-15T09:09:21.263Z,92.90
2018-03-15T09:11:55.669Z,92.80
2018-03-15T09:14:29.658Z,92.70
2018-03-15T09:17:04.213Z,91.70
2018-03-15T09:19:39.006Z,91.50
2018-03-15T09:22:13.661Z,91.30
2018-03-15T09:24:48.064Z,90.60
2018-03-15T09:27:22.585Z,91.40
2018-03-15T09:29:58.089Z,91.50
2018-03-15T09:32:31.757Z,91.50
2018-03-15T09:35:05.806Z,92.00
2018-03-15T09:37:40.647Z,90.30
2018-03-15T09:40:14.973Z,90.40
2018-03-15T09:42:50.032Z,89.80
2018-03-15T09:45:25.103Z,90.10
2018-03-15T09:47:59.595Z,89.40
2018-03-15T09:50:33.616Z,89.40
2018-03-15T09:53:08.581Z,86.70
2018-03-15T09:55:43.152Z,86.10
2018-03-15T09:58:18.203Z,88.60
2018-03-15T10:00:52.100Z,88.60
2018-03-15T10:03:26.000Z,85.70
2018-03-15T10:06:01.047Z,85.40
2018-03-15T10:08:35.573Z,83.30
2018-03-15T10:11:09.685Z,83.10
2018-03-15T10:13:43.701Z,81.70
2018-03-15T10:16:17.661Z,80.70
2018-03-15T10:18:51.296Z,81.10
2018-03-15T10:21:25.181Z,84.60
2018-03-15T10:23:59.604Z,82.40
2018-03-15T10:26:33.294Z,80.40
2018-03-15T10:29:07.489Z,79.90
2018-03-15T10:31:41.523Z,81.40
2018-03-15T10:34:15.681Z,80.20
2018-03-15T10:36:49.440Z,79.00
2018-03-15T10:39:23.936Z,79.50
2018-03-15T10:41:58.606Z,78.00
2018-03-15T10:44:32.399Z,78.10
2018-03-15T10:47:06.295Z,78.20
2018-03-15T10:49:40.215Z,77.20
2018-03-15T10:52:14.740Z,77.70
2018-03-15T10:54:49.556Z,79.50
2018-03-15T10:57:23.464Z,79.70
2018-03-15T10:59:57.370Z,80.00
2018-03-15T11:02:37.954Z,81.80
2018-03-15T11:05:17.664Z,81.80
2018-03-15T11:07:57.845Z,78.10
2018-03-15T11:10:32.864Z,77.70
2018-03-15T11:13:07.523Z,77.20
2018-03-15T11:15:41.394Z,77.20
2018-03-15T11:18:15.915Z,75.30
2018-03-15T11:20:50.429Z,73.20
2018-03-15T11:23:25.366Z,75.50
2018-03-15T11:26:00.287Z,75.40
2018-03-15T11:28:34.015Z,76.10
2018-03-15T11:31:08.120Z,77.40
2018-03-15T11:33:42.736Z,76.10
2018-03-15T11:36:18.265Z,76.30
2018-03-15T11:38:52.693Z,76.30
2018-03-15T11:41:26.612Z,76.40
2018-03-15T11:44:01.154Z,74.30
2018-03-15T11:46:36.264Z,72.40
2018-03-15T11:49:10.599Z,72.40
2018-03-15T11:51:44.400Z,78.70
2018-03-15T11:54:18.500Z,75.10
2018-03-15T11:56:52.405Z,72.90
2018-03-15T11:59:26.729Z,73.20
2018-03-15T12:02:00.729Z,72.50
2018-03-15T12:04:36.284Z,70.50
2018-03-15T12:07:09.977Z,70.40
2018-03-15T12:09:44.925Z,70.60
2018-03-15T12:12:18.924Z,70.70
2018-03-15T12:14:53.029Z,70.70
2018-03-15T12:17:27.053Z,71.10
2018-03-15T12:20:01.769Z,71.20
2018-03-15T12:22:36.414Z,71.50
2018-03-15T12:25:10.118Z,72.50
2018-03-15T12:27:46.661Z,70.50
2018-03-15T12:30:20.666Z,70.50
2018-03-15T12:32:55.645Z,70.90
2018-03-15T12:35:29.517Z,68.70
2018-03-15T12:38:03.613Z,68.50
2018-03-15T12:40:37.626Z,67.10
2018-03-15T12:43:12.714Z,66.80
2018-03-15T12:45:46.647Z,66.80
2018-03-15T12:48:20.535Z,69.10
2018-03-15T12:50:55.192Z,69.60
2018-03-15T12:53:30.227Z,72.00
2018-03-15T12:56:04.170Z,71.70
2018-03-15T12:58:38.110Z,72.50
2018-03-15T13:01:12.676Z,72.10
2018-03-15T13:03:48.006Z,71.40
2018-03-15T13:06:22.874Z,72.90
2018-03-15T13:08:57.499Z,73.50
2018-03-15T13:11:31.455Z,73.50
2018-03-15T13:14:05.958Z,74.20
2018-03-15T13:16:40.813Z,73.70
2018-03-15T13:19:14.616Z,73.70
2018-03-15T13:21:50.029Z,71.40
2018-03-15T13:24:25.302Z,71.60
2018-03-15T13:26:59.986Z,73.00
2018-03-15T13:29:34.720Z,73.10
2018-03-15T13:32:09.585Z,74.20
2018-03-15T13:34:44.222Z,73.90
2018-03-15T13:37:18.553Z,73.80
2018-03-15T13:39:53.001Z,73.30
2018-03-15T13:42:27.451Z,73.20
2018-03-15T13:45:02.203Z,75.50
2018-03-15T13:47:36.161Z,75.50
2018-03-15T13:50:13.039Z,77.20
2018-03-15T13:52:47.062Z,77.10
2018-03-15T13:55:23.869Z,73.60
2018-03-15T13:57:58.387Z,74.70
2018-03-15T14:00:32.178Z,74.40
2018-03-15T14:03:05.896Z,74.50
2018-03-15T14:05:40.408Z,73.50
2018-03-15T14:08:15.129Z,76.70
2018-03-15T14:23:54.300Z,79.40
2018-03-15T14:26:28.108Z,80.10
2018-03-15T14:29:01.940Z,78.90
2018-03-15T14:31:35.668Z,78.70
2018-03-15T14:34:09.363Z,79.10
2018-03-15T14:36:43.480Z,80.90
2018-03-15T14:39:17.389Z,80.90
2018-03-15T14:41:52.008Z,81.80
2018-03-15T14:44:26.753Z,81.00
2018-03-15T14:47:01.491Z,81.90
2018-03-15T14:49:35.240Z,81.90
2018-03-15T14:52:09.389Z,82.10
2018-03-15T14:54:43.472Z,81.10
2018-03-15T14:57:18.308Z,81.70
2018-03-15T14:59:52.019Z,81.70
2018-03-15T15:02:26.511Z,81.40
2018-03-15T15:05:00.145Z,81.40
2018-03-15T15:07:34.220Z,82.50
2018-03-15T15:10:08.540Z,81.90
2018-03-15T15:12:42.292Z,81.90
2018-03-15T15:15:15.884Z,82.30
2018-03-15T15:17:49.744Z,82.90
2018-03-15T15:20:24.396Z,82.40
2018-03-15T15:22:59.558Z,82.30
2018-03-15T15:25:33.383Z,82.30
2018-03-15T15:28:07.146Z,82.40
2018-03-15T15:30:40.755Z,83.10
2018-03-15T15:33:15.880Z,83.10
2018-03-15T15:35:49.434Z,83.10
2018-03-15T15:38:23.268Z,84.10
2018-03-15T15:40:57.373Z,83.80
2018-03-15T15:43:31.199Z,83.60
2018-03-15T15:46:06.025Z,83.70
2018-03-15T15:48:41.354Z,85.40
2018-03-15T15:51:14.906Z,85.40
2018-03-15T15:53:49.528Z,88.40
2018-03-15T15:56:23.156Z,88.40
2018-03-15T15:58:59.789Z,90.00
2018-03-15T16:01:33.454Z,89.80
2018-03-15T16:04:07.874Z,89.30
2018-03-15T16:06:42.500Z,88.60
2018-03-15T16:09:17.523Z,89.50
2018-03-15T16:11:52.267Z,88.70
2018-03-15T16:14:26.484Z,88.70
2018-03-15T16:17:01.438Z,87.70
2018-03-15T16:19:35.708Z,88.50
2018-03-15T16:22:10.136Z,88.40
2018-03-15T16:24:45.084Z,88.60
2018-03-15T16:27:20.977Z,87.70
2018-03-15T16:29:54.934Z,87.60
2018-03-15T16:32:30.050Z,88.00
2018-03-15T16:35:03.893Z,87.80
2018-03-15T16:37:37.788Z,87.90
2018-03-15T16:40:11.495Z,88.30
2018-03-15T16:42:45.373Z,87.40
2018-03-15T16:45:19.276Z,88.10
2018-03-15T16:47:53.424Z,88.20
2018-03-15T16:50:28.067Z,87.70
2018-03-15T16:53:01.800Z,87.70
2018-03-15T16:55:35.559Z,88.10
2018-03-15T16:58:09.657Z,87.10
2018-03-15T17:00:45.106Z,86.90
2018-03-15T17:03:20.372Z,88.70
2018-03-15T17:05:55.162Z,87.10
2018-03-15T17:08:28.964Z,87.20
2018-03-15T17:11:03.463Z,87.70
2018-03-15T17:13:39.133Z,89.10
2018-03-15T17:16:14.024Z,88.90
2018-03-15T17:18:48.530Z,88.80
2018-03-15T17:21:23.013Z,89.40
2018-03-15T17:23:58.233Z,90.10
2018-03-15T17:26:31.992Z,90.00
2018-03-15T17:29:05.677Z,90.00
2018-03-15T17:31:39.657Z,90.00
2018-03-15T17:34:13.364Z,90.00
2018-03-15T17:36:47.280Z,90.40
